createdAt,value
2022-12-03T00:01:47.220Z,2.58
2022-12-03T00:04:15.835Z,2.59
2022-12-03T00:06:44.355Z,2.60
2022-12-03T00:09:12.868Z,2.58
2022-12-03T00:11:41.684Z,2.59
2022-12-03T00:14:11.291Z,2.59
2022-12-03T00:16:39.842Z,2.57
2022-12-03T00:19:08.300Z,2.56
2022-12-03T00:21:36.887Z,2.56
2022-12-03T00:24:05.508Z,2.55
2022-12-03T00:26:34.095Z,2.55
2022-12-03T00:29:02.594Z,2.54
2022-12-03T00:31:32.244Z,2.56
2022-12-03T00:34:00.565Z,2.53
2022-12-03T00:36:29.085Z,2.52
2022-12-03T00:38:57.568Z,2.53
2022-12-03T00:41:26.079Z,2.53
2022-12-03T00:43:57.469Z,2.52
2022-12-03T00:46:26.375Z,2.52
2022-12-03T00:48:56.311Z,2.50
2022-12-03T00:51:24.616Z,2.49
2022-12-03T00:53:53.182Z,2.49
2022-12-03T00:56:21.708Z,2.49
2022-12-03T00:58:51.619Z,2.49
2022-12-03T01:01:20.311Z,2.49
2022-12-03T01:03:48.843Z,2.49
2022-12-03T01:06:18.733Z,2.49
2022-12-03T01:08:47.288Z,2.48
2022-12-03T01:11:29.705Z,2.46
2022-12-03T01:13:58.358Z,2.46
2022-12-03T01:16:26.895Z,2.45
2022-12-03T01:18:55.457Z,2.44
2022-12-03T01:21:25.096Z,2.45
2022-12-03T01:23:53.710Z,2.45
2022-12-03T01:26:22.411Z,2.45
2022-12-03T01:28:50.991Z,2.46
2022-12-03T01:31:37.095Z,2.48
2022-12-03T01:34:05.819Z,2.47
2022-12-03T01:36:35.422Z,2.47
2022-12-03T01:39:04.848Z,2.47
2022-12-03T01:41:34.526Z,2.48
2022-12-03T01:44:04.081Z,2.48
2022-12-03T01:46:39.663Z,2.48
2022-12-03T01:49:14.835Z,2.47
2022-12-03T01:51:44.692Z,2.46
2022-12-03T01:54:19.154Z,2.45
2022-12-03T01:56:48.396Z,2.46
2022-12-03T01:59:20.052Z,2.45
2022-12-03T02:01:48.681Z,2.47
2022-12-03T02:04:20.688Z,2.49
2022-12-03T02:06:50.451Z,2.50
2022-12-03T02:09:19.911Z,2.50
2022-12-03T02:11:51.532Z,2.52
2022-12-03T02:14:22.676Z,2.53
2022-12-03T02:16:51.015Z,2.53
2022-12-03T02:19:27.634Z,2.54
2022-12-03T02:22:06.619Z,2.54
2022-12-03T02:24:44.690Z,2.54
2022-12-03T02:27:14.362Z,2.55
2022-12-03T02:29:42.599Z,2.56
2022-12-03T02:32:11.075Z,2.56
2022-12-03T02:34:42.867Z,2.56
2022-12-03T02:37:16.276Z,2.55
2022-12-03T02:39:51.277Z,2.55
2022-12-03T02:42:37.134Z,2.55
2022-12-03T02:45:11.895Z,2.54
2022-12-03T02:47:43.983Z,2.56
2022-12-03T02:50:16.102Z,2.56
2022-12-03T02:52:47.462Z,2.58
2022-12-03T02:55:18.188Z,2.58
2022-12-03T02:57:51.201Z,2.60
2022-12-03T03:00:20.863Z,2.61
2022-12-03T03:02:50.606Z,2.62
2022-12-03T03:05:22.987Z,2.65
2022-12-03T03:07:52.702Z,2.65
2022-12-03T03:10:24.279Z,2.66
2022-12-03T03:12:56.468Z,2.68
2022-12-03T03:15:25.457Z,2.70
2022-12-03T03:17:54.091Z,2.71
2022-12-03T03:20:22.684Z,2.72
2022-12-03T03:22:51.210Z,2.72
2022-12-03T03:25:22.423Z,2.74
2022-12-03T03:27:51.195Z,2.74
2022-12-03T03:30:20.924Z,2.74
2022-12-03T03:32:49.521Z,2.74
2022-12-03T03:35:18.090Z,2.76
2022-12-03T03:37:46.825Z,2.78
2022-12-03T03:40:15.489Z,2.78
2022-12-03T03:42:44.342Z,2.79
2022-12-03T03:45:12.807Z,2.80
2022-12-03T03:47:43.538Z,2.82
2022-12-03T03:50:13.877Z,2.83
2022-12-03T03:52:43.082Z,2.83
2022-12-03T03:55:12.675Z,2.82
2022-12-03T03:57:41.433Z,2.82
2022-12-03T04:00:11.330Z,2.82
2022-12-03T04:02:39.911Z,2.83
2022-12-03T04:05:16.903Z,2.82
2022-12-03T04:07:45.395Z,2.82
2022-12-03T04:10:33.291Z,2.82
2022-12-03T04:13:02.077Z,2.80
2022-12-03T04:15:30.735Z,2.81
2022-12-03T04:18:16.945Z,2.80
2022-12-03T04:20:46.576Z,2.80
2022-12-03T04:23:14.166Z,2.81
2022-12-03T04:26:02.367Z,2.82
2022-12-03T04:28:48.814Z,2.80
2022-12-03T04:31:31.263Z,2.80
2022-12-03T04:34:17.438Z,2.79
2022-12-03T04:36:47.692Z,2.78
2022-12-03T04:39:16.229Z,2.77
2022-12-03T04:41:44.747Z,2.78
2022-12-03T04:44:30.545Z,2.77
2022-12-03T04:46:58.850Z,2.76
2022-12-03T04:49:27.461Z,2.76
2022-12-03T04:51:57.279Z,2.77
2022-12-03T04:54:25.838Z,2.76
2022-12-03T04:56:54.358Z,2.77
2022-12-03T04:59:23.018Z,2.77
2022-12-03T05:01:51.721Z,2.76
2022-12-03T05:04:20.345Z,2.75
2022-12-03T05:06:48.735Z,2.74
2022-12-03T05:09:18.310Z,2.74
2022-12-03T05:11:47.162Z,2.76
2022-12-03T05:14:15.675Z,2.75
2022-12-03T05:16:44.190Z,2.74
2022-12-03T05:19:12.703Z,2.74
2022-12-03T05:21:40.314Z,2.74
2022-12-03T05:24:09.226Z,2.73
2022-12-03T05:26:38.846Z,2.73
2022-12-03T05:29:07.370Z,2.73
2022-12-03T05:31:36.826Z,2.74
2022-12-03T05:34:05.914Z,2.76
2022-12-03T05:36:34.457Z,2.76
2022-12-03T05:39:02.955Z,2.75
2022-12-03T05:41:48.857Z,2.73
2022-12-03T05:44:20.703Z,2.73
2022-12-03T05:46:49.493Z,2.72
2022-12-03T05:49:17.972Z,2.70
2022-12-03T05:51:46.507Z,2.70
2022-12-03T05:54:15.015Z,2.69
2022-12-03T05:56:58.761Z,2.70
2022-12-03T05:59:28.474Z,2.69
2022-12-03T06:01:57.009Z,2.69
2022-12-03T06:04:25.587Z,2.68
2022-12-03T06:06:53.836Z,2.67
2022-12-03T06:09:22.383Z,2.66
2022-12-03T06:11:54.000Z,2.64
2022-12-03T06:14:22.398Z,2.62
2022-12-03T06:16:52.003Z,2.62
2022-12-03T06:19:20.535Z,2.60
2022-12-03T06:21:49.014Z,2.59
2022-12-03T06:24:17.573Z,2.57
2022-12-03T06:26:46.191Z,2.56
2022-12-03T06:29:14.424Z,2.56
2022-12-03T06:31:43.032Z,2.53
2022-12-03T06:34:12.760Z,2.53
2022-12-03T06:36:41.225Z,2.51
2022-12-03T06:39:09.822Z,2.50
2022-12-03T06:41:38.372Z,2.49
2022-12-03T06:44:07.152Z,2.48
2022-12-03T06:46:36.149Z,2.48
2022-12-03T06:49:04.846Z,2.45
2022-12-03T06:51:34.431Z,2.44
2022-12-03T06:54:03.470Z,2.43
2022-12-03T06:56:36.831Z,2.39
2022-12-03T06:59:06.057Z,2.33
2022-12-03T07:01:34.736Z,2.28
2022-12-03T07:04:03.448Z,2.24
2022-12-03T07:06:31.655Z,2.22
2022-12-03T07:09:01.310Z,2.17
2022-12-03T07:11:32.922Z,2.14
2022-12-03T07:14:05.660Z,2.09
2022-12-03T07:16:34.947Z,2.07
2022-12-03T07:19:03.872Z,2.06
2022-12-03T07:21:32.457Z,2.01
2022-12-03T07:24:02.218Z,2.00
2022-12-03T07:26:30.944Z,2.00
2022-12-03T07:29:00.035Z,2.00
2022-12-03T07:31:28.778Z,2.01
2022-12-03T07:33:57.587Z,2.04
2022-12-03T07:36:26.089Z,2.07
2022-12-03T07:38:54.603Z,2.11
2022-12-03T07:41:24.487Z,2.15
2022-12-03T07:43:53.651Z,2.20
2022-12-03T07:46:22.353Z,2.24
2022-12-03T07:48:51.360Z,2.29
2022-12-03T07:51:19.915Z,2.34
2022-12-03T07:53:48.108Z,2.40
2022-12-03T07:56:16.639Z,2.45
2022-12-03T07:58:46.214Z,2.48
2022-12-03T08:01:14.755Z,2.53
2022-12-03T08:03:43.875Z,2.54
2022-12-03T08:06:12.538Z,2.58
2022-12-03T08:08:41.195Z,2.60
2022-12-03T08:11:14.720Z,2.61
2022-12-03T08:13:43.325Z,2.63
2022-12-03T08:16:18.533Z,2.66
2022-12-03T08:18:48.343Z,2.70
2022-12-03T08:21:19.496Z,2.76
2022-12-03T08:23:48.240Z,2.80
2022-12-03T08:26:23.573Z,2.82
2022-12-03T08:28:52.399Z,2.85
2022-12-03T08:31:32.372Z,2.87
2022-12-03T08:34:17.694Z,2.89
2022-12-03T08:36:46.772Z,2.94
2022-12-03T08:39:30.577Z,2.98
2022-12-03T08:42:28.208Z,3.07
2022-12-03T08:44:56.818Z,3.15
2022-12-03T08:47:26.824Z,3.19
2022-12-03T08:49:59.862Z,3.24
2022-12-03T08:52:33.626Z,3.29
2022-12-03T08:55:21.213Z,3.35
2022-12-03T08:57:49.562Z,3.42
2022-12-03T09:00:23.992Z,3.46
2022-12-03T09:03:00.501Z,3.50
2022-12-03T09:05:32.617Z,3.53
2022-12-03T09:08:01.695Z,3.56
2022-12-03T09:10:30.399Z,3.58
2022-12-03T09:12:59.065Z,3.60
2022-12-03T09:15:28.302Z,3.70
2022-12-03T09:17:57.959Z,3.78
2022-12-03T09:20:26.491Z,3.84
2022-12-03T09:22:55.056Z,3.93
2022-12-03T09:25:23.641Z,4.05
2022-12-03T09:27:52.200Z,4.14
2022-12-03T09:30:20.800Z,4.20
2022-12-03T09:32:49.425Z,4.29
2022-12-03T09:35:19.284Z,4.43
2022-12-03T09:37:47.855Z,4.57
2022-12-03T09:40:16.731Z,4.64
2022-12-03T09:42:45.801Z,4.68
2022-12-03T09:45:16.252Z,4.71
2022-12-03T09:47:48.682Z,4.72
2022-12-03T09:50:23.671Z,4.71
2022-12-03T09:52:54.838Z,4.68
2022-12-03T09:55:26.875Z,4.67
2022-12-03T09:57:56.792Z,4.66
2022-12-03T10:00:28.212Z,4.68
2022-12-03T10:03:02.433Z,4.70
2022-12-03T10:05:33.160Z,4.72
2022-12-03T10:08:07.824Z,4.71
2022-12-03T10:10:36.569Z,4.74
2022-12-03T10:13:05.776Z,4.70
2022-12-03T10:15:34.740Z,4.70
2022-12-03T10:18:16.812Z,4.71
2022-12-03T10:20:47.004Z,4.73
2022-12-03T10:23:23.191Z,4.75
2022-12-03T10:25:56.914Z,4.77
2022-12-03T10:28:32.668Z,4.78
2022-12-03T10:31:03.106Z,4.80
2022-12-03T10:33:36.855Z,4.83
2022-12-03T10:36:23.258Z,4.88
2022-12-03T10:39:10.459Z,4.94
2022-12-03T10:41:39.621Z,5.01
2022-12-03T10:44:19.256Z,5.06
2022-12-03T10:47:07.553Z,5.13
2022-12-03T10:49:36.307Z,5.23
2022-12-03T10:52:07.270Z,5.35
2022-12-03T10:54:36.775Z,5.41
2022-12-03T10:57:05.437Z,5.48
2022-12-03T10:59:35.952Z,5.49
2022-12-03T11:02:08.959Z,5.51
2022-12-03T11:04:38.048Z,5.56
2022-12-03T11:07:16.057Z,5.57
2022-12-03T11:09:46.989Z,5.59
2022-12-03T11:12:21.963Z,5.60
2022-12-03T11:15:08.187Z,5.67
2022-12-03T11:17:49.874Z,5.80
2022-12-03T11:21:08.175Z,6.16
2022-12-03T11:24:21.774Z,6.71
2022-12-03T11:27:22.915Z,7.14
2022-12-03T11:29:58.562Z,7.42
2022-12-03T11:33:21.591Z,7.48
2022-12-03T11:36:31.619Z,7.40
2022-12-03T11:39:05.327Z,7.31
2022-12-03T11:41:36.374Z,7.26
2022-12-03T11:44:33.651Z,7.17
2022-12-03T11:47:14.892Z,7.11
2022-12-03T11:49:49.014Z,7.11
2022-12-03T11:52:29.441Z,7.19
2022-12-03T11:55:14.248Z,7.29
2022-12-03T11:57:44.328Z,7.38
2022-12-03T12:00:21.773Z,7.45
2022-12-03T12:02:51.218Z,7.47
2022-12-03T12:05:29.852Z,7.46
2022-12-03T12:07:58.688Z,7.45
2022-12-03T12:10:42.052Z,7.43
2022-12-03T12:13:56.695Z,7.40
2022-12-03T12:16:50.503Z,7.30
2022-12-03T12:19:39.826Z,7.12
2022-12-03T12:22:31.199Z,7.02
2022-12-03T12:25:01.333Z,6.95
2022-12-03T12:27:37.411Z,6.84
2022-12-03T12:30:13.731Z,6.75
2022-12-03T12:32:47.772Z,6.66
2022-12-03T12:35:20.850Z,6.57
2022-12-03T12:37:58.912Z,6.49
2022-12-03T12:40:30.906Z,6.41
2022-12-03T12:43:06.833Z,6.35
2022-12-03T12:45:43.552Z,6.28
2022-12-03T12:48:22.066Z,6.24
2022-12-03T12:51:00.536Z,6.18
2022-12-03T12:53:32.568Z,6.11
2022-12-03T12:56:02.955Z,6.07
2022-12-03T12:58:34.150Z,6.01
2022-12-03T13:01:12.077Z,5.98
2022-12-03T13:03:41.183Z,5.93
2022-12-03T13:06:15.463Z,5.89
2022-12-03T13:08:48.155Z,5.86
2022-12-03T13:11:35.309Z,5.80
2022-12-03T13:14:13.613Z,5.80
2022-12-03T13:16:43.479Z,5.76
2022-12-03T13:19:23.532Z,5.73
2022-12-03T13:21:53.493Z,5.71
2022-12-03T13:24:35.101Z,5.66
2022-12-03T13:27:22.869Z,5.63
2022-12-03T13:29:56.263Z,5.60
2022-12-03T13:32:32.466Z,5.59
2022-12-03T13:35:05.707Z,5.57
2022-12-03T13:37:34.583Z,5.54
2022-12-03T13:40:27.895Z,5.49
2022-12-03T13:42:55.272Z,5.46
2022-12-03T13:45:36.059Z,5.44
2022-12-03T13:48:19.714Z,5.42
2022-12-03T13:50:48.299Z,5.40
2022-12-03T13:53:22.882Z,5.39
2022-12-03T13:55:52.907Z,5.36
2022-12-03T13:58:21.395Z,5.32
2022-12-03T14:00:50.037Z,5.31
2022-12-03T14:03:19.871Z,5.32
2022-12-03T14:05:48.436Z,5.33
2022-12-03T14:08:17.137Z,5.31
2022-12-03T14:10:45.471Z,5.30
2022-12-03T14:13:13.957Z,5.31
2022-12-03T14:15:42.217Z,5.31
2022-12-03T14:18:11.651Z,5.29
2022-12-03T14:20:41.221Z,5.24
2022-12-03T14:23:09.719Z,5.20
2022-12-03T14:25:38.228Z,5.16
2022-12-03T14:28:08.588Z,5.11
2022-12-03T14:30:37.139Z,5.07
2022-12-03T14:33:05.723Z,5.05
2022-12-03T14:35:34.292Z,5.00
2022-12-03T14:38:03.896Z,4.96
2022-12-03T14:40:32.562Z,4.94
2022-12-03T14:43:01.043Z,4.93
2022-12-03T14:45:29.989Z,4.90
2022-12-03T14:47:58.666Z,4.87
2022-12-03T14:50:27.425Z,4.85
2022-12-03T14:52:56.048Z,4.83
2022-12-03T14:55:25.833Z,4.81
2022-12-03T14:57:54.414Z,4.80
2022-12-03T15:00:23.746Z,4.79
2022-12-03T15:02:52.333Z,4.77
2022-12-03T15:05:27.937Z,4.76
2022-12-03T15:07:57.436Z,4.76
2022-12-03T15:10:27.015Z,4.74
2022-12-03T15:12:55.543Z,4.72
2022-12-03T15:15:24.050Z,4.71
2022-12-03T15:17:52.547Z,4.69
2022-12-03T15:20:21.024Z,4.65
2022-12-03T15:22:49.549Z,4.63
2022-12-03T15:25:24.232Z,4.59
2022-12-03T15:27:53.939Z,4.58
2022-12-03T15:30:22.422Z,4.57
2022-12-03T15:32:50.950Z,4.55
2022-12-03T15:35:19.466Z,4.53
2022-12-03T15:37:48.050Z,4.51
2022-12-03T15:40:16.800Z,4.50
2022-12-03T15:42:45.347Z,4.48
2022-12-03T15:45:15.505Z,4.47
2022-12-03T15:47:44.440Z,4.44
2022-12-03T15:50:14.139Z,4.44
2022-12-03T15:52:42.719Z,4.42
2022-12-03T15:55:11.396Z,4.41
2022-12-03T15:57:40.215Z,4.40
2022-12-03T16:00:12.040Z,4.36
2022-12-03T16:02:52.198Z,4.33
2022-12-03T16:05:21.275Z,4.31
2022-12-03T16:07:50.069Z,4.27
2022-12-03T16:10:21.341Z,4.23
2022-12-03T16:12:50.182Z,4.22
2022-12-03T16:15:22.230Z,4.21
2022-12-03T16:17:56.286Z,4.19
2022-12-03T16:20:24.541Z,4.20
2022-12-03T16:22:53.187Z,4.18
2022-12-03T16:25:21.856Z,4.17
2022-12-03T16:27:50.129Z,4.15
2022-12-03T16:30:18.988Z,4.14
2022-12-03T16:32:47.501Z,4.12
2022-12-03T16:35:17.391Z,4.10
2022-12-03T16:37:45.863Z,4.10
2022-12-03T16:40:14.507Z,4.09
2022-12-03T16:42:43.010Z,4.08
2022-12-03T16:45:33.837Z,4.06
2022-12-03T16:48:02.920Z,4.06
2022-12-03T16:50:32.679Z,4.05
2022-12-03T16:53:01.242Z,4.03
2022-12-03T16:55:29.714Z,4.02
2022-12-03T16:57:58.294Z,4.02
2022-12-03T17:00:26.735Z,4.03
2022-12-03T17:02:55.438Z,4.01
2022-12-03T17:05:24.101Z,4.02
2022-12-03T17:07:53.892Z,4.01
2022-12-03T17:10:22.509Z,3.99
2022-12-03T17:15:40.202Z,3.98
2022-12-03T17:18:09.396Z,3.97
2022-12-03T17:20:37.964Z,3.97
2022-12-03T17:23:07.609Z,3.97
2022-12-03T17:25:35.964Z,3.95
2022-12-03T17:28:04.649Z,3.95
2022-12-03T17:30:33.193Z,3.93
2022-12-03T17:33:01.677Z,3.92
2022-12-03T17:35:30.488Z,3.92
2022-12-03T17:37:59.004Z,3.91
2022-12-03T17:40:28.602Z,3.92
2022-12-03T17:42:57.063Z,3.92
2022-12-03T17:45:27.732Z,3.92
2022-12-03T17:47:56.241Z,3.92
2022-12-03T17:50:26.599Z,3.92
2022-12-03T17:52:55.096Z,3.90
2022-12-03T17:55:32.081Z,3.90
2022-12-03T17:58:06.092Z,3.89
2022-12-03T18:00:34.994Z,3.88
2022-12-03T18:03:03.293Z,3.87
2022-12-03T18:05:31.954Z,3.87
2022-12-03T18:08:00.503Z,3.88
2022-12-03T18:10:29.071Z,3.88
2022-12-03T18:13:01.621Z,3.86
2022-12-03T18:15:33.093Z,3.87
2022-12-03T18:18:02.462Z,3.87
2022-12-03T18:20:31.131Z,3.87
2022-12-03T18:23:00.426Z,3.86
2022-12-03T18:25:29.347Z,3.84
2022-12-03T18:27:57.759Z,3.85
2022-12-03T18:30:26.343Z,3.84
2022-12-03T18:32:56.424Z,3.83
2022-12-03T18:35:24.950Z,3.83
2022-12-03T18:37:53.382Z,3.83
2022-12-03T18:40:26.974Z,3.82
2022-12-03T18:42:56.778Z,3.81
2022-12-03T18:45:25.282Z,3.82
2022-12-03T18:47:54.715Z,3.80
2022-12-03T18:50:24.352Z,3.80
2022-12-03T18:52:52.911Z,3.81
2022-12-03T18:55:22.690Z,3.81
2022-12-03T18:57:51.257Z,3.81
2022-12-03T19:00:20.324Z,3.80
2022-12-03T19:03:04.855Z,3.80
2022-12-03T19:05:36.538Z,3.79
2022-12-03T19:08:12.580Z,3.78
2022-12-03T19:10:41.809Z,3.78
2022-12-03T19:13:10.331Z,3.77
2022-12-03T19:15:39.852Z,3.77
2022-12-03T19:18:08.351Z,3.77
2022-12-03T19:20:41.812Z,3.75
2022-12-03T19:23:10.464Z,3.76
2022-12-03T19:25:38.960Z,3.76
2022-12-03T19:28:07.581Z,3.76
2022-12-03T19:30:36.087Z,3.76
2022-12-03T19:33:04.638Z,3.74
2022-12-03T19:35:33.541Z,3.74
2022-12-03T19:38:03.133Z,3.75
2022-12-03T19:40:32.080Z,3.75
2022-12-03T19:43:00.807Z,3.75
2022-12-03T19:45:29.313Z,3.74
2022-12-03T19:47:57.854Z,3.74
2022-12-03T19:50:26.080Z,3.74
2022-12-03T19:52:54.622Z,3.75
2022-12-03T19:55:24.168Z,3.76
2022-12-03T19:57:52.693Z,3.76
2022-12-03T20:00:21.352Z,3.77
2022-12-03T20:02:50.832Z,3.75
2022-12-03T20:05:19.557Z,3.77
2022-12-03T20:07:48.075Z,3.77
2022-12-03T20:10:16.679Z,3.76
2022-12-03T20:12:46.413Z,3.76
2022-12-03T20:15:15.199Z,3.75
2022-12-03T20:17:43.791Z,3.75
2022-12-03T20:20:12.977Z,3.75
2022-12-03T20:22:41.458Z,3.76
2022-12-03T20:25:10.574Z,3.76
2022-12-03T20:27:39.267Z,3.77
2022-12-03T20:30:11.287Z,3.77
2022-12-03T20:32:45.025Z,3.76
2022-12-03T20:35:13.745Z,3.77
2022-12-03T20:37:42.067Z,3.77
2022-12-03T20:40:11.576Z,3.77
2022-12-03T20:42:40.071Z,3.78
2022-12-03T20:45:11.580Z,3.78
2022-12-03T20:47:40.188Z,3.80
2022-12-03T20:50:09.503Z,3.80
2022-12-03T20:52:38.163Z,3.80
2022-12-03T20:55:07.206Z,3.82
2022-12-03T20:57:36.522Z,3.80
2022-12-03T21:00:06.319Z,3.81
2022-12-03T21:02:35.969Z,3.80
2022-12-03T21:05:04.396Z,3.82
2022-12-03T21:07:33.069Z,3.83
2022-12-03T21:10:01.579Z,3.84
2022-12-03T21:12:30.089Z,3.84
2022-12-03T21:14:58.593Z,3.83
2022-12-03T21:17:27.173Z,3.83
2022-12-03T21:19:57.197Z,3.82
2022-12-03T21:22:26.127Z,3.83
2022-12-03T21:24:54.597Z,3.83
2022-12-03T21:27:23.110Z,3.82
2022-12-03T21:29:51.408Z,3.83
2022-12-03T21:32:20.343Z,3.83
2022-12-03T21:34:48.820Z,3.82
2022-12-03T21:37:18.449Z,3.83
2022-12-03T21:39:46.962Z,3.82
2022-12-03T21:42:34.859Z,3.82
2022-12-03T21:45:04.299Z,3.81
2022-12-03T21:47:37.334Z,3.83
2022-12-03T21:50:08.471Z,3.83
2022-12-03T21:52:38.099Z,3.82
2022-12-03T21:55:07.590Z,3.83
2022-12-03T21:57:37.207Z,3.83
2022-12-03T22:00:08.554Z,3.80
2022-12-03T22:02:40.105Z,3.78
2022-12-03T22:05:09.766Z,3.77
2022-12-03T22:07:41.003Z,3.75
2022-12-03T22:10:12.315Z,3.74
2022-12-03T22:12:41.908Z,3.75
2022-12-03T22:15:18.200Z,3.76
2022-12-03T22:17:49.898Z,3.76
2022-12-03T22:20:18.379Z,3.77
2022-12-03T22:22:48.018Z,3.77
2022-12-03T22:25:17.807Z,3.77
2022-12-03T22:27:46.043Z,3.77
2022-12-03T22:30:14.926Z,3.77
2022-12-03T22:32:43.452Z,3.76
2022-12-03T22:35:11.947Z,3.74
2022-12-03T22:37:40.163Z,3.73
2022-12-03T22:40:10.893Z,3.74
2022-12-03T22:42:39.088Z,3.71
2022-12-03T22:45:08.813Z,3.71
2022-12-03T22:47:37.092Z,3.70
2022-12-03T22:50:06.368Z,3.71
2022-12-03T22:52:34.979Z,3.70
2022-12-03T22:55:03.292Z,3.69
2022-12-03T22:57:33.019Z,3.67
2022-12-03T23:00:01.610Z,3.67
2022-12-03T23:02:29.854Z,3.67
2022-12-03T23:04:58.382Z,3.65
2022-12-03T23:07:26.971Z,3.64
2022-12-03T23:09:55.760Z,3.64
2022-12-03T23:12:24.475Z,3.63
2022-12-03T23:14:55.750Z,3.62
2022-12-03T23:17:24.316Z,3.61
2022-12-03T23:19:53.395Z,3.61
2022-12-03T23:22:22.146Z,3.60
2022-12-03T23:24:50.654Z,3.58
2022-12-03T23:27:19.199Z,3.58
2022-12-03T23:29:47.887Z,3.57
2022-12-03T23:32:17.502Z,3.58
2022-12-03T23:34:46.127Z,3.58
2022-12-03T23:37:14.411Z,3.57
2022-12-03T23:39:42.898Z,3.56
2022-12-03T23:42:11.395Z,3.56
2022-12-03T23:44:39.936Z,3.56
2022-12-03T23:47:08.459Z,3.56
2022-12-03T23:49:38.240Z,3.57
2022-12-03T23:52:06.810Z,3.56
2022-12-03T23:54:35.355Z,3.58
2022-12-03T23:57:03.899Z,3.58
2022-12-03T23:59:32.473Z,3.58
